createdAt,value
2023-03-11T00:00:31.670Z,98552.84
2023-03-11T00:03:00.579Z,98560.13
2023-03-11T00:05:30.400Z,98565.44
2023-03-11T00:07:57.561Z,98575.19
2023-03-11T00:10:29.975Z,98575.31
2023-03-11T00:12:57.254Z,98580.00
2023-03-11T00:15:23.670Z,98589.41
2023-03-11T00:17:51.121Z,98592.75
2023-03-11T00:20:23.728Z,98599.94
2023-03-11T00:22:51.170Z,98604.13
2023-03-11T00:25:18.349Z,98612.88
2023-03-11T00:27:44.843Z,98612.38
2023-03-11T00:30:13.280Z,98617.94
2023-03-11T00:32:40.186Z,98631.72
2023-03-11T00:35:08.903Z,98633.94
2023-03-11T00:37:35.441Z,98641.94
2023-03-11T00:40:01.840Z,98650.53
2023-03-11T00:42:28.602Z,98646.09
2023-03-11T00:44:55.022Z,98659.31
2023-03-11T00:47:21.478Z,98661.22
2023-03-11T00:49:47.867Z,98662.38
2023-03-11T00:52:15.015Z,98667.34
2023-03-11T00:54:41.432Z,98678.91
2023-03-11T00:57:08.376Z,98690.47
2023-03-11T00:59:35.674Z,98688.28
2023-03-11T01:02:02.110Z,98702.88
2023-03-11T01:04:28.642Z,98713.31
2023-03-11T01:06:55.067Z,98714.72
2023-03-11T01:09:21.481Z,98721.88
2023-03-11T01:11:47.880Z,98728.50
2023-03-11T01:14:14.314Z,98730.72
2023-03-11T01:16:40.702Z,98746.13
2023-03-11T01:19:08.549Z,98751.13
2023-03-11T01:21:35.149Z,98767.66
2023-03-11T01:24:01.564Z,98776.19
2023-03-11T01:26:27.961Z,98784.44
2023-03-11T01:28:55.663Z,98786.66
2023-03-11T01:31:22.075Z,98803.75
2023-03-11T01:33:49.095Z,98813.38
2023-03-11T01:36:15.490Z,98817.50
2023-03-11T01:38:41.874Z,98818.63
2023-03-11T01:41:11.198Z,98824.41
2023-03-11T01:43:43.404Z,98846.72
2023-03-11T01:46:30.900Z,98850.84
2023-03-11T01:48:59.638Z,98869.31
2023-03-11T01:51:35.720Z,98870.97
2023-03-11T01:54:33.520Z,98885.88
2023-03-11T01:57:03.869Z,98883.63
2023-03-11T01:59:33.078Z,98897.97
2023-03-11T02:02:05.409Z,98904.84
2023-03-11T02:04:34.349Z,98919.69
2023-03-11T02:07:01.702Z,98931.88
2023-03-11T02:09:28.302Z,98934.59
2023-03-11T02:11:56.161Z,98944.22
2023-03-11T02:14:25.658Z,98954.41
2023-03-11T02:16:53.675Z,98973.16
2023-03-11T02:19:27.110Z,98975.94
2023-03-11T02:21:53.665Z,98991.66
2023-03-11T02:24:39.074Z,98989.66
2023-03-11T02:27:12.455Z,98994.94
2023-03-11T02:29:39.340Z,99003.72
2023-03-11T02:32:08.803Z,99002.63
2023-03-11T02:34:39.453Z,99027.19
2023-03-11T02:37:12.571Z,99030.72
2023-03-11T02:39:45.201Z,99042.81
2023-03-11T02:42:17.935Z,99056.59
2023-03-11T02:44:47.055Z,99058.53
2023-03-11T02:47:14.707Z,99079.28
2023-03-11T02:49:41.976Z,99078.63
2023-03-11T02:52:08.388Z,99097.13
2023-03-11T02:58:40.979Z,99125.50
2023-03-11T03:01:09.560Z,99131.81
2023-03-11T03:03:36.011Z,99136.56
2023-03-11T03:06:02.491Z,99130.97
2023-03-11T03:08:28.947Z,99145.91
2023-03-11T03:10:55.382Z,99156.06
2023-03-11T03:13:23.473Z,99169.50
2023-03-11T03:15:50.428Z,99177.28
2023-03-11T03:18:16.846Z,99183.56
2023-03-11T03:20:43.466Z,99197.91
2023-03-11T03:23:10.491Z,99207.91
2023-03-11T03:25:36.949Z,99208.34
2023-03-11T03:28:06.777Z,99212.69
2023-03-11T03:30:36.092Z,99229.75
2023-03-11T03:33:02.495Z,99229.22
2023-03-11T03:35:29.923Z,99241.94
2023-03-11T03:38:09.241Z,99261.75
2023-03-11T03:40:35.814Z,99261.97
2023-03-11T03:43:05.412Z,99276.88
2023-03-11T03:45:33.622Z,99279.16
2023-03-11T03:48:00.261Z,99295.50
2023-03-11T03:50:30.977Z,99288.00
2023-03-11T03:52:57.434Z,99300.66
2023-03-11T03:55:24.345Z,99318.47
2023-03-11T03:57:51.519Z,99318.25
2023-03-11T04:00:20.294Z,99332.31
2023-03-11T04:02:53.501Z,99341.91
2023-03-11T04:05:30.289Z,99342.44
2023-03-11T04:07:56.799Z,99346.63
2023-03-11T04:10:23.413Z,99356.31
2023-03-11T04:12:50.046Z,99367.06
2023-03-11T04:15:16.817Z,99374.47
2023-03-11T04:17:44.085Z,99378.81
2023-03-11T04:20:11.273Z,99364.94
2023-03-11T04:22:37.740Z,99385.16
2023-03-11T04:25:05.284Z,99393.47
2023-03-11T04:27:32.659Z,99395.53
2023-03-11T04:30:00.000Z,99401.41
2023-03-11T04:32:26.576Z,99417.56
2023-03-11T04:34:53.072Z,99417.88
2023-03-11T04:37:19.530Z,99425.91
2023-03-11T04:39:46.130Z,99439.22
2023-03-11T04:42:13.983Z,99452.09
2023-03-11T04:44:42.170Z,99463.44
2023-03-11T04:47:08.685Z,99462.09
2023-03-11T04:49:35.989Z,99471.84
2023-03-11T04:52:02.755Z,99473.84
2023-03-11T04:54:29.711Z,99463.13
2023-03-11T04:56:56.167Z,99478.47
2023-03-11T04:59:23.323Z,99486.22
2023-03-11T05:01:51.305Z,99496.19
2023-03-11T05:04:17.781Z,99503.66
2023-03-11T05:06:44.200Z,99505.78
2023-03-11T05:09:11.726Z,99521.81
2023-03-11T05:11:39.862Z,99537.06
2023-03-11T05:14:06.296Z,99535.91
2023-03-11T05:16:32.791Z,99547.34
2023-03-11T05:18:59.499Z,99547.69
2023-03-11T05:21:25.960Z,99559.97
2023-03-11T05:23:52.931Z,99572.56
2023-03-11T05:26:19.360Z,99579.19
2023-03-11T05:28:46.934Z,99578.66
2023-03-11T05:31:13.406Z,99586.63
2023-03-11T05:33:41.114Z,99586.78
2023-03-11T05:36:10.889Z,99589.19
2023-03-11T05:38:40.752Z,99601.03
2023-03-11T05:41:10.243Z,99603.88
2023-03-11T05:43:37.694Z,99615.56
2023-03-11T05:46:04.281Z,99611.06
2023-03-11T05:48:31.657Z,99619.38
2023-03-11T05:50:59.318Z,99624.06
2023-03-11T05:53:26.221Z,99629.66
2023-03-11T05:55:57.234Z,99634.94
2023-03-11T05:58:25.476Z,99632.09
2023-03-11T06:00:51.983Z,99638.84
2023-03-11T06:03:18.621Z,99648.19
2023-03-11T06:05:49.573Z,99650.59
2023-03-11T06:08:16.536Z,99658.44
2023-03-11T06:10:43.505Z,99668.41
2023-03-11T06:13:10.687Z,99664.38
2023-03-11T06:15:46.062Z,99669.47
2023-03-11T06:18:12.664Z,99673.22
2023-03-11T06:20:39.202Z,99673.16
2023-03-11T06:23:05.678Z,99679.34
2023-03-11T06:25:32.607Z,99697.47
2023-03-11T06:27:59.613Z,99703.72
2023-03-11T06:30:26.571Z,99707.38
2023-03-11T06:33:09.844Z,99711.56
2023-03-11T06:35:36.394Z,99717.16
2023-03-11T06:38:02.850Z,99725.75
2023-03-11T06:40:29.408Z,99726.91
2023-03-11T06:42:55.831Z,99746.47
2023-03-11T06:45:24.819Z,99751.16
2023-03-11T06:47:52.256Z,99770.34
2023-03-11T06:50:20.140Z,99763.53
2023-03-11T06:52:46.609Z,99774.66
2023-03-11T06:55:13.225Z,99769.75
2023-03-11T06:57:39.650Z,99793.78
2023-03-11T07:00:12.478Z,99787.28
2023-03-11T07:02:41.780Z,99795.03
2023-03-11T07:05:08.633Z,99813.13
2023-03-11T07:07:35.207Z,99796.88
2023-03-11T07:10:03.714Z,99817.56
2023-03-11T07:12:30.364Z,99806.56
2023-03-11T07:14:58.087Z,99812.06
2023-03-11T07:17:25.378Z,99828.97
2023-03-11T07:19:52.461Z,99816.00
2023-03-11T07:22:19.040Z,99828.22
2023-03-11T07:24:47.269Z,99839.88
2023-03-11T07:27:13.685Z,99846.94
2023-03-11T07:29:40.124Z,99851.03
2023-03-11T07:32:08.086Z,99855.31
2023-03-11T07:34:34.917Z,99860.00
2023-03-11T07:37:01.326Z,99872.53
2023-03-11T07:39:27.951Z,99876.03
2023-03-11T07:41:54.370Z,99895.84
2023-03-11T07:44:21.021Z,99891.47
2023-03-11T07:46:47.425Z,99891.06
2023-03-11T07:49:14.055Z,99905.81
2023-03-11T07:51:44.783Z,99906.69
2023-03-11T07:54:12.179Z,99918.22
2023-03-11T07:56:38.744Z,99910.72
2023-03-11T07:59:05.820Z,99920.47
2023-03-11T08:01:36.927Z,99939.38
2023-03-11T08:04:06.888Z,99930.44
2023-03-11T08:06:34.626Z,99936.44
2023-03-11T08:09:03.803Z,99937.81
2023-03-11T08:11:30.654Z,99950.66
2023-03-11T08:13:57.900Z,99956.34
2023-03-11T08:16:24.746Z,99957.53
2023-03-11T08:18:57.501Z,99962.13
2023-03-11T08:21:28.763Z,99970.50
2023-03-11T08:23:58.884Z,99981.84
2023-03-11T08:26:26.223Z,99985.81
2023-03-11T08:28:52.655Z,99992.56
2023-03-11T08:31:21.965Z,99996.50
2023-03-11T08:33:50.185Z,99997.00
2023-03-11T08:36:17.569Z,100015.81
2023-03-11T08:38:44.168Z,100019.63
2023-03-11T08:41:10.728Z,100023.34
2023-03-11T08:43:37.262Z,100029.69
2023-03-11T08:46:09.020Z,100028.50
2023-03-11T08:48:37.248Z,100040.22
2023-03-11T08:51:10.210Z,100040.91
2023-03-11T08:53:37.685Z,100047.13
2023-03-11T08:56:04.728Z,100048.47
2023-03-11T08:58:31.130Z,100048.78
2023-03-11T09:00:57.674Z,100051.63
2023-03-11T09:03:24.076Z,100058.22
2023-03-11T09:05:57.160Z,100061.13
2023-03-11T09:08:23.629Z,100065.81
2023-03-11T09:10:50.047Z,100081.81
2023-03-11T09:13:16.437Z,100082.00
2023-03-11T09:15:42.876Z,100082.53
2023-03-11T09:18:13.169Z,100086.94
2023-03-11T09:20:40.280Z,100091.88
2023-03-11T09:23:07.654Z,100098.44
2023-03-11T09:25:34.096Z,100103.72
2023-03-11T09:28:00.488Z,100108.53
2023-03-11T09:30:27.192Z,100109.59
2023-03-11T09:32:53.817Z,100100.97
2023-03-11T09:35:20.248Z,100115.75
2023-03-11T09:37:46.639Z,100113.44
2023-03-11T09:40:16.761Z,100120.69
2023-03-11T09:43:19.573Z,100129.38
2023-03-11T09:45:56.517Z,100128.81
2023-03-11T09:48:33.943Z,100129.16
2023-03-11T09:51:08.932Z,100139.63
2023-03-11T09:53:40.400Z,100142.28
2023-03-11T09:56:09.961Z,100136.50
2023-03-11T09:58:51.592Z,100144.31
2023-03-11T10:01:33.240Z,100144.66
2023-03-11T10:04:14.612Z,100152.34
2023-03-11T10:06:44.309Z,100163.13
2023-03-11T10:09:39.284Z,100166.63
2023-03-11T10:12:33.306Z,100176.69
2023-03-11T10:15:05.786Z,100174.28
2023-03-11T10:17:52.855Z,100178.59
2023-03-11T10:20:30.718Z,100186.03
2023-03-11T10:23:16.092Z,100194.53
2023-03-11T10:25:53.111Z,100188.31
2023-03-11T10:28:22.308Z,100199.81
2023-03-11T10:30:57.871Z,100198.75
2023-03-11T10:33:36.678Z,100202.19
2023-03-11T10:36:09.388Z,100217.56
2023-03-11T10:38:46.683Z,100209.16
2023-03-11T10:41:28.728Z,100213.97
2023-03-11T10:43:59.621Z,100215.41
2023-03-11T10:46:28.144Z,100227.25
2023-03-11T10:48:55.038Z,100216.34
2023-03-11T10:51:24.878Z,100219.44
2023-03-11T10:53:54.258Z,100226.63
2023-03-11T10:56:30.127Z,100226.88
2023-03-11T10:58:57.520Z,100233.22
2023-03-11T11:01:25.119Z,100232.06
2023-03-11T11:03:55.803Z,100239.00
2023-03-11T11:06:35.173Z,100240.31
2023-03-11T11:09:07.535Z,100252.56
2023-03-11T11:11:36.132Z,100244.63
2023-03-11T11:14:02.643Z,100252.66
2023-03-11T11:16:30.522Z,100256.88
2023-03-11T11:19:04.798Z,100252.16
2023-03-11T11:21:34.569Z,100247.03
2023-03-11T11:24:27.217Z,100252.66
2023-03-11T11:27:15.572Z,100253.25
2023-03-11T11:29:42.569Z,100263.44
2023-03-11T11:32:14.775Z,100254.44
2023-03-11T11:34:41.390Z,100266.44
2023-03-11T11:37:13.205Z,100263.41
2023-03-11T11:39:51.621Z,100254.19
2023-03-11T11:42:23.264Z,100258.16
2023-03-11T11:44:56.565Z,100267.50
2023-03-11T11:47:34.767Z,100265.00
2023-03-11T11:50:05.066Z,100279.41
2023-03-11T11:52:36.389Z,100272.09
2023-03-11T11:55:04.963Z,100267.56
2023-03-11T11:57:31.854Z,100263.34
2023-03-11T11:59:58.899Z,100265.50
2023-03-11T12:02:46.260Z,100268.06
2023-03-11T12:05:23.399Z,100271.50
2023-03-11T12:07:54.602Z,100266.31
2023-03-11T12:10:41.654Z,100282.72
2023-03-11T12:13:45.516Z,100280.28
2023-03-11T12:16:20.831Z,100276.19
2023-03-11T12:18:56.016Z,100277.78
2023-03-11T12:21:32.580Z,100279.22
2023-03-11T12:24:17.033Z,100283.19
2023-03-11T12:26:47.537Z,100266.38
2023-03-11T12:29:40.521Z,100282.31
2023-03-11T12:32:07.311Z,100291.06
2023-03-11T12:34:35.898Z,100291.59
2023-03-11T12:37:03.459Z,100295.69
2023-03-11T12:39:33.634Z,100290.88
2023-03-11T12:42:22.506Z,100282.47
2023-03-11T12:44:49.911Z,100282.66
2023-03-11T12:47:22.588Z,100292.72
2023-03-11T12:49:51.974Z,100289.84
2023-03-11T12:52:27.477Z,100298.47
2023-03-11T12:54:56.525Z,100297.97
2023-03-11T12:57:36.530Z,100295.66
2023-03-11T13:00:23.068Z,100309.53
2023-03-11T13:03:08.420Z,100313.09
2023-03-11T13:05:45.189Z,100310.69
2023-03-11T13:08:19.430Z,100307.66
2023-03-11T13:10:47.965Z,100314.31
2023-03-11T13:13:33.303Z,100322.13
2023-03-11T13:16:14.819Z,100323.34
2023-03-11T13:18:46.853Z,100322.78
2023-03-11T13:21:38.024Z,100320.69
2023-03-11T13:24:19.394Z,100328.38
2023-03-11T13:26:52.870Z,100331.00
2023-03-11T13:29:46.244Z,100342.28
2023-03-11T13:32:36.239Z,100340.75
2023-03-11T13:35:32.760Z,100342.50
2023-03-11T13:38:19.054Z,100346.22
2023-03-11T13:40:46.909Z,100352.00
2023-03-11T13:43:22.506Z,100351.69
2023-03-11T13:46:03.677Z,100348.78
2023-03-11T13:48:31.943Z,100359.13
2023-03-11T13:51:06.290Z,100369.13
2023-03-11T13:53:39.591Z,100365.03
2023-03-11T13:56:06.595Z,100378.22
2023-03-11T13:58:33.009Z,100378.81
2023-03-11T14:01:01.370Z,100386.53
2023-03-11T14:03:33.560Z,100383.06
2023-03-11T14:06:06.425Z,100379.22
2023-03-11T14:08:35.296Z,100377.41
2023-03-11T14:11:12.207Z,100384.59
2023-03-11T14:13:41.075Z,100392.41
2023-03-11T14:16:15.945Z,100380.84
2023-03-11T14:18:48.405Z,100388.09
2023-03-11T14:21:18.155Z,100386.25
2023-03-11T14:23:47.463Z,100386.00
2023-03-11T14:26:17.689Z,100385.84
2023-03-11T14:28:48.188Z,100387.72
2023-03-11T14:31:39.993Z,100399.66
2023-03-11T14:34:18.353Z,100401.00
2023-03-11T14:36:50.993Z,100393.81
2023-03-11T14:39:31.687Z,100395.63
2023-03-11T14:42:18.880Z,100399.44
2023-03-11T14:44:51.265Z,100403.09
2023-03-11T14:47:29.677Z,100404.81
2023-03-11T14:49:57.121Z,100403.81
2023-03-11T14:52:37.318Z,100408.72
2023-03-11T14:55:14.052Z,100412.22
2023-03-11T14:57:51.272Z,100405.84
2023-03-11T15:00:28.504Z,100414.09
2023-03-11T15:02:58.641Z,100415.59
2023-03-11T15:05:34.800Z,100412.78
2023-03-11T15:08:03.690Z,100410.69
2023-03-11T15:10:30.233Z,100419.31
2023-03-11T15:13:08.756Z,100415.81
2023-03-11T15:15:35.291Z,100407.38
2023-03-11T15:18:02.202Z,100421.56
2023-03-11T15:20:34.843Z,100425.59
2023-03-11T15:23:03.708Z,100416.97
2023-03-11T15:25:33.346Z,100420.53
2023-03-11T15:28:13.146Z,100415.41
2023-03-11T15:30:39.873Z,100418.50
2023-03-11T15:33:21.216Z,100417.66
2023-03-11T15:35:48.860Z,100430.00
2023-03-11T15:38:23.586Z,100435.19
2023-03-11T15:40:56.407Z,100429.53
2023-03-11T15:43:27.771Z,100423.59
2023-03-11T15:45:56.301Z,100428.41
2023-03-11T15:48:23.437Z,100429.97
2023-03-11T15:50:55.763Z,100427.78
2023-03-11T15:53:24.440Z,100435.78
2023-03-11T15:55:52.285Z,100434.22
2023-03-11T15:58:20.292Z,100443.63
2023-03-11T16:00:56.390Z,100442.47
2023-03-11T16:03:23.455Z,100453.19
2023-03-11T16:05:49.991Z,100448.84
2023-03-11T16:08:16.827Z,100454.88
2023-03-11T16:10:43.278Z,100456.75
2023-03-11T16:13:13.263Z,100460.72
2023-03-11T16:15:40.202Z,100462.66
2023-03-11T16:18:08.672Z,100463.41
2023-03-11T16:20:41.693Z,100461.97
2023-03-11T16:23:16.055Z,100465.44
2023-03-11T16:25:43.193Z,100474.09
2023-03-11T16:28:13.548Z,100472.16
2023-03-11T16:30:39.930Z,100480.19
2023-03-11T16:33:06.384Z,100489.63
2023-03-11T16:35:33.378Z,100490.25
2023-03-11T16:38:00.029Z,100493.34
2023-03-11T16:40:28.887Z,100506.34
2023-03-11T16:42:59.758Z,100503.81
2023-03-11T16:45:26.218Z,100496.13
2023-03-11T16:47:52.618Z,100502.72
2023-03-11T16:50:20.750Z,100506.44
2023-03-11T16:52:47.354Z,100507.69
2023-03-11T16:55:13.749Z,100512.72
2023-03-11T16:57:40.134Z,100508.88
2023-03-11T17:00:09.735Z,100510.69
2023-03-11T17:02:37.739Z,100513.81
2023-03-11T17:05:06.407Z,100519.09
2023-03-11T17:07:33.469Z,100523.19
2023-03-11T17:10:00.271Z,100525.47
2023-03-11T17:12:27.450Z,100529.44
2023-03-11T17:14:54.923Z,100534.94
2023-03-11T17:17:22.126Z,100537.50
2023-03-11T17:19:48.621Z,100542.19
2023-03-11T17:22:15.390Z,100541.09
2023-03-11T17:24:41.911Z,100542.41
2023-03-11T17:27:08.290Z,100543.38
2023-03-11T17:29:34.694Z,100541.19
2023-03-11T17:32:02.421Z,100538.56
2023-03-11T17:34:29.027Z,100540.00
2023-03-11T17:36:56.493Z,100546.81
2023-03-11T17:39:22.950Z,100544.88
2023-03-11T17:41:49.471Z,100537.78
2023-03-11T17:44:15.960Z,100544.28
2023-03-11T17:46:42.422Z,100557.09
2023-03-11T17:49:13.559Z,100555.78
2023-03-11T17:51:39.873Z,100561.19
2023-03-11T17:54:06.371Z,100557.59
2023-03-11T17:56:32.765Z,100560.19
2023-03-11T17:58:59.433Z,100565.50
2023-03-11T18:01:27.999Z,100562.25
2023-03-11T18:03:54.875Z,100566.91
2023-03-11T18:06:22.228Z,100565.47
2023-03-11T18:08:48.916Z,100565.69
2023-03-11T18:11:19.307Z,100562.19
2023-03-11T18:13:46.429Z,100566.72
2023-03-11T18:16:19.156Z,100563.63
2023-03-11T18:18:46.071Z,100568.78
2023-03-11T18:21:13.908Z,100574.16
2023-03-11T18:23:41.003Z,100572.84
2023-03-11T18:26:09.351Z,100572.81
2023-03-11T18:28:36.000Z,100577.03
2023-03-11T18:31:12.987Z,100581.69
2023-03-11T18:33:40.687Z,100578.31
2023-03-11T18:36:23.897Z,100584.47
2023-03-11T18:38:52.379Z,100586.34
2023-03-11T18:41:18.961Z,100585.50
2023-03-11T18:43:45.898Z,100581.09
2023-03-11T18:46:15.312Z,100589.81
2023-03-11T18:48:41.938Z,100585.63
2023-03-11T18:51:09.280Z,100584.47
2023-03-11T18:53:36.248Z,100583.31
2023-03-11T18:56:05.550Z,100585.69
2023-03-11T18:58:32.637Z,100591.97
2023-03-11T19:01:12.329Z,100600.72
2023-03-11T19:03:39.285Z,100597.59
2023-03-11T19:06:07.988Z,100591.66
2023-03-11T19:08:34.397Z,100589.75
2023-03-11T19:11:00.773Z,100587.00
2023-03-11T19:13:40.692Z,100589.16
2023-03-11T19:16:13.109Z,100592.59
2023-03-11T19:18:40.341Z,100592.59
2023-03-11T19:21:08.547Z,100595.25
2023-03-11T19:23:35.076Z,100595.81
2023-03-11T19:26:03.420Z,100592.50
2023-03-11T19:28:30.385Z,100599.56
2023-03-11T19:30:58.312Z,100595.56
2023-03-11T19:33:26.154Z,100594.47
2023-03-11T19:35:54.297Z,100601.81
2023-03-11T19:38:21.979Z,100612.22
2023-03-11T19:41:04.109Z,100605.09
2023-03-11T19:43:30.884Z,100610.59
2023-03-11T19:45:57.526Z,100605.72
2023-03-11T19:48:24.501Z,100609.75
2023-03-11T19:50:51.603Z,100604.88
2023-03-11T19:53:18.696Z,100607.25
2023-03-11T19:55:47.364Z,100614.81
2023-03-11T19:58:14.150Z,100607.84
2023-03-11T20:00:42.450Z,100612.16
2023-03-11T20:03:10.401Z,100614.66
2023-03-11T20:05:42.278Z,100606.78
2023-03-11T20:08:10.591Z,100609.13
2023-03-11T20:10:38.752Z,100604.34
2023-03-11T20:13:05.650Z,100604.63
2023-03-11T20:15:32.191Z,100598.03
2023-03-11T20:18:00.688Z,100601.25
2023-03-11T20:20:28.349Z,100598.88
2023-03-11T20:22:55.434Z,100600.72
2023-03-11T20:25:22.684Z,100602.72
2023-03-11T20:27:49.094Z,100602.47
2023-03-11T20:30:15.712Z,100607.97
2023-03-11T20:32:42.187Z,100612.06
2023-03-11T20:35:08.876Z,100619.31
2023-03-11T20:37:35.346Z,100616.50
2023-03-11T20:40:02.154Z,100616.50
2023-03-11T20:42:28.600Z,100618.00
2023-03-11T20:44:55.005Z,100613.38
2023-03-11T20:47:21.540Z,100619.25
2023-03-11T20:49:48.108Z,100618.13
2023-03-11T20:52:14.522Z,100620.94
2023-03-11T20:54:40.977Z,100622.94
2023-03-11T20:57:07.883Z,100621.63
2023-03-11T20:59:34.307Z,100619.75
2023-03-11T21:02:01.018Z,100620.56
2023-03-11T21:04:27.563Z,100618.41
2023-03-11T21:06:55.342Z,100615.50
2023-03-11T21:09:21.829Z,100616.72
2023-03-11T21:11:48.249Z,100609.53
2023-03-11T21:14:16.470Z,100613.38
2023-03-11T21:16:44.958Z,100612.44
2023-03-11T21:19:13.342Z,100610.31
2023-03-11T21:21:39.861Z,100613.75
2023-03-11T21:24:07.124Z,100615.56
2023-03-11T21:26:34.677Z,100620.94
2023-03-11T21:29:01.157Z,100624.41
2023-03-11T21:31:29.463Z,100618.78
2023-03-11T21:33:58.811Z,100618.88
2023-03-11T21:36:25.509Z,100620.56
2023-03-11T21:38:52.079Z,100616.25
2023-03-11T21:41:25.133Z,100620.72
2023-03-11T21:43:55.835Z,100621.38
2023-03-11T21:46:25.096Z,100610.53
2023-03-11T21:48:51.634Z,100610.00
2023-03-11T21:51:19.629Z,100604.84
2023-03-11T21:53:46.914Z,100607.16
2023-03-11T21:56:14.008Z,100606.69
2023-03-11T21:58:40.961Z,100607.00
2023-03-11T22:01:08.423Z,100613.38
2023-03-11T22:03:36.055Z,100596.81
2023-03-11T22:06:06.255Z,100593.44
2023-03-11T22:08:32.977Z,100606.31
2023-03-11T22:10:59.830Z,100603.56
2023-03-11T22:13:26.445Z,100599.13
2023-03-11T22:15:52.966Z,100598.03
2023-03-11T22:18:19.536Z,100595.91
2023-03-11T22:20:46.131Z,100605.69
2023-03-11T22:23:12.552Z,100608.69
2023-03-11T22:25:39.008Z,100602.72
2023-03-11T22:28:05.516Z,100598.72
2023-03-11T22:30:31.993Z,100604.00
2023-03-11T22:32:58.425Z,100605.16
2023-03-11T22:35:24.811Z,100609.16
2023-03-11T22:37:51.226Z,100611.28
2023-03-11T22:40:17.676Z,100611.78
2023-03-11T22:42:44.073Z,100608.16
2023-03-11T22:45:10.985Z,100611.50
2023-03-11T22:47:37.398Z,100609.19
2023-03-11T22:50:03.992Z,100610.50
2023-03-11T22:52:30.414Z,100611.75
2023-03-11T22:54:56.814Z,100607.16
2023-03-11T22:57:23.189Z,100610.13
2023-03-11T22:59:49.613Z,100608.56
2023-03-11T23:02:15.992Z,100610.03
2023-03-11T23:04:45.311Z,100615.34
2023-03-11T23:07:12.087Z,100607.81
2023-03-11T23:09:38.832Z,100610.91
2023-03-11T23:12:05.501Z,100612.03
2023-03-11T23:14:44.116Z,100608.00
2023-03-11T23:17:10.840Z,100619.94
2023-03-11T23:19:37.250Z,100621.34
2023-03-11T23:22:03.945Z,100621.66
2023-03-11T23:24:30.332Z,100622.91
2023-03-11T23:26:56.767Z,100612.41
2023-03-11T23:29:23.168Z,100621.75
2023-03-11T23:31:49.568Z,100613.78
2023-03-11T23:34:15.949Z,100616.31
2023-03-11T23:36:42.346Z,100623.34
2023-03-11T23:39:08.739Z,100622.97
2023-03-11T23:41:36.540Z,100622.50
2023-03-11T23:44:02.947Z,100617.59
2023-03-11T23:46:29.407Z,100625.47
2023-03-11T23:48:55.820Z,100625.09
2023-03-11T23:51:22.474Z,100622.50
2023-03-11T23:53:48.894Z,100620.81
2023-03-11T23:56:17.597Z,100625.28
2023-03-11T23:58:44.745Z,100617.47
